Time;durP1;ratioP1;P1;durP2;ratioP2;P2;SDS_P1;SDS_P2;PMS_P1;PMS_P2;Temp;Humidity;BMP_temperature;BMP_pressure;BME280_temperature;BME280_humidity;BME280_pressure;Samples;Min_cycle;Max_cycle;Signal;HPM_P1;HPM_P2
2022/04/01 00:00:38;;;;;;;29.43;17.60;;;6.70;99.90;;;;;;5072486;28;20081;-65
2022/04/01 00:03:05;;;;;;;30.15;18.15;;;6.70;99.90;;;;;;5072602;28;20400;-65
2022/04/01 00:05:30;;;;;;;;;;;6.70;99.90;;;;;;5073035;28;20115;-65
2022/04/01 00:07:56;;;;;;;30.95;18.15;;;6.70;99.90;;;;;;5054385;28;19950;-65
2022/04/01 00:10:21;;;;;;;29.77;17.97;;;6.70;99.90;;;;;;5072286;28;20028;-65
2022/04/01 00:12:47;;;;;;;29.97;17.70;;;6.60;99.90;;;;;;5072388;28;20482;-65
2022/04/01 00:15:14;;;;;;;30.07;17.47;;;6.70;99.90;;;;;;5072425;28;20023;-65
2022/04/01 00:17:41;;;;;;;30.42;18.08;;;6.70;99.90;;;;;;5054628;28;20024;-65
2022/04/01 00:20:09;;;;;;;29.17;18.10;;;6.80;99.90;;;;;;5072460;28;20567;-64
2022/04/01 00:22:35;;;;;;;33.53;17.98;;;6.80;99.90;;;;;;5072085;28;20411;-64
2022/04/01 00:25:00;;;;;;;32.10;19.33;;;6.80;99.90;;;;;;5072206;28;20116;-64
2022/04/01 00:27:26;;;;;;;29.03;18.40;;;6.90;99.90;;;;;;5073957;28;20029;-65
2022/04/01 00:29:52;;;;;;;31.05;18.23;;;6.70;99.90;;;;;;5075697;28;20038;-63
2022/04/01 00:32:17;;;;;;;31.50;18.67;;;6.80;99.90;;;;;;5057703;28;20371;-65
2022/04/01 00:34:45;;;;;;;29.97;18.47;;;6.80;99.90;;;;;;5075636;28;20020;-64
2022/04/01 00:37:11;;;;;;;31.25;19.30;;;6.80;99.90;;;;;;5075751;28;20408;-64
2022/04/01 00:39:38;;;;;;;32.00;19.95;;;6.70;99.90;;;;;;5076174;28;20032;-64
2022/04/01 00:42:04;;;;;;;32.90;19.27;;;6.70;99.90;;;;;;5075844;28;20471;-62
2022/04/01 00:44:36;;;;;;;32.92;18.98;;;6.70;99.90;;;;;;5057436;28;20040;-64
2022/04/01 00:47:04;;;;;;;33.58;20.25;;;6.70;99.90;;;;;;5075760;28;20447;-64
2022/04/01 00:49:31;;;;;;;34.47;20.77;;;6.60;99.90;;;;;;5075780;28;20040;-64
2022/04/01 00:51:57;;;;;;;;;;;6.50;99.90;;;;;;5075898;28;20020;-62
2022/04/01 00:54:24;;;;;;;33.25;19.48;;;6.50;99.90;;;;;;5075490;28;19971;-64
2022/04/01 00:56:50;;;;;;;36.28;20.90;;;6.50;99.90;;;;;;5075329;28;20032;-63
2022/04/01 00:59:15;;;;;;;33.72;19.95;;;6.50;99.90;;;;;;5075728;28;20090;-63
2022/04/01 01:01:45;;;;;;;36.97;21.30;;;6.40;99.90;;;;;;5075142;28;20035;-62
2022/04/01 01:04:14;;;;;;;36.17;19.70;;;6.40;99.90;;;;;;5075049;28;20070;-63
2022/04/01 01:06:45;;;;;;;39.30;20.85;;;6.30;99.90;;;;;;5075039;28;20024;-64
2022/04/01 01:09:12;;;;;;;34.85;20.60;;;6.30;99.90;;;;;;5056886;28;20028;-65
2022/04/01 01:11:38;;;;;;;33.70;19.38;;;6.30;99.90;;;;;;5075179;28;20034;-64
2022/04/01 01:14:07;;;;;;;34.67;20.90;;;6.30;99.90;;;;;;5074764;28;20420;-64
2022/04/01 01:16:34;;;;;;;34.88;20.83;;;6.30;99.90;;;;;;5074773;28;20089;-65
2022/04/01 01:19:07;;;;;;;33.75;20.52;;;6.30;99.90;;;;;;5056965;28;20074;-63
2022/04/01 01:21:34;;;;;;;32.15;17.95;;;6.30;99.90;;;;;;5074615;28;20548;-63
2022/04/01 01:24:03;;;;;;;31.95;19.17;;;6.30;99.90;;;;;;5075139;28;20029;-63
2022/04/01 01:26:29;;;;;;;33.45;19.05;;;6.30;99.90;;;;;;5057444;28;20391;-63
2022/04/01 01:28:56;;;;;;;32.38;18.83;;;6.30;99.90;;;;;;5075046;28;20020;-64
2022/04/01 01:31:21;;;;;;;31.95;18.77;;;6.30;99.90;;;;;;5074712;28;20017;-64
2022/04/01 01:33:49;;;;;;;29.17;17.87;;;6.20;99.90;;;;;;5056951;28;20383;-64
2022/04/01 01:36:15;;;;;;;34.15;19.65;;;6.20;99.90;;;;;;5074717;28;20020;-64
2022/04/01 01:38:41;;;;;;;33.42;18.67;;;6.20;99.90;;;;;;5073362;28;20035;-64
2022/04/01 01:41:06;;;;;;;33.13;19.60;;;6.30;99.90;;;;;;5074480;28;20099;-64
2022/04/01 01:43:32;;;;;;;36.90;20.13;;;6.20;99.90;;;;;;5074504;28;20032;-64
2022/04/01 01:45:58;;;;;;;34.03;19.88;;;6.20;99.90;;;;;;5074604;28;20031;-63
2022/04/01 01:48:24;;;;;;;28.97;18.47;;;6.20;99.90;;;;;;5056478;28;20028;-64
2022/04/01 01:56:18;;;;;;;30.95;18.35;;;6.20;99.90;;;;;;5074541;28;20031;-64
2022/04/01 01:58:44;;;;;;;33.07;18.30;;;6.20;99.90;;;;;;5074190;28;20107;-64
2022/04/01 02:01:10;;;;;;;31.50;19.10;;;6.20;99.90;;;;;;5055929;28;20050;-64
2022/04/01 02:03:37;;;;;;;29.52;17.90;;;6.30;99.90;;;;;;5073912;28;20033;-64
2022/04/01 02:06:03;;;;;;;;;;;6.30;99.90;;;;;;5074553;28;20029;-64
2022/04/01 02:08:31;;;;;;;28.70;17.17;;;6.30;99.90;;;;;;5074357;28;19911;-64
2022/04/01 02:10:57;;;;;;;30.48;18.30;;;6.40;99.90;;;;;;5056235;28;20125;-63
2022/04/01 02:13:23;;;;;;;27.73;17.13;;;6.40;99.90;;;;;;5074337;28;20063;-64
2022/04/01 02:15:50;;;;;;;26.88;16.92;;;6.30;99.90;;;;;;5073851;28;20091;-64
2022/04/01 02:18:16;;;;;;;29.98;17.92;;;6.30;99.90;;;;;;5073955;28;20044;-64
2022/04/01 02:20:41;;;;;;;30.95;17.88;;;6.30;99.90;;;;;;5074178;28;20016;-64
2022/04/01 02:23:09;;;;;;;30.50;17.77;;;6.20;99.90;;;;;;5074036;28;20043;-64
2022/04/01 02:25:36;;;;;;;27.35;16.98;;;6.20;99.90;;;;;;5074390;28;20024;-64
2022/04/01 02:28:02;;;;;;;30.67;17.65;;;6.20;99.90;;;;;;5056832;28;20093;-64
2022/04/01 02:30:28;;;;;;;32.15;17.55;;;6.20;99.90;;;;;;5073709;28;20032;-64
2022/04/01 02:32:54;;;;;;;28.73;17.02;;;6.20;99.90;;;;;;5073547;28;20020;-64
2022/04/01 02:35:19;;;;;;;33.83;19.30;;;6.20;99.90;;;;;;5073320;28;20099;-64
2022/04/01 02:37:46;;;;;;;31.23;16.77;;;6.20;99.90;;;;;;5073304;28;20394;-64
2022/04/01 02:40:12;;;;;;;;;;;6.20;99.90;;;;;;5073556;28;20025;-63
2022/04/01 02:42:38;;;;;;;28.67;16.77;;;6.30;99.90;;;;;;5073229;28;19911;-63
2022/04/01 02:45:04;;;;;;;28.80;16.80;;;6.50;99.90;;;;;;5073121;28;20028;-64
2022/04/01 02:47:30;;;;;;;27.17;16.48;;;6.50;99.90;;;;;;5073854;28;20032;-64
2022/04/01 02:49:56;;;;;;;29.33;17.30;;;6.40;99.90;;;;;;5072681;28;20539;-64
2022/04/01 02:52:21;;;;;;;28.77;16.27;;;6.40;99.90;;;;;;5073538;28;20029;-64
2022/04/01 02:54:47;;;;;;;28.33;17.10;;;6.40;99.90;;;;;;5073404;28;20021;-64
2022/04/01 02:57:13;;;;;;;29.10;16.60;;;6.30;99.90;;;;;;5073368;28;20091;-64
2022/04/01 02:59:39;;;;;;;26.15;15.77;;;6.20;99.90;;;;;;5073325;28;20386;-64
2022/04/01 03:02:05;;;;;;;28.75;17.00;;;6.20;99.90;;;;;;5073145;28;20115;-64
2022/04/01 03:04:30;;;;;;;28.83;16.30;;;6.20;99.90;;;;;;5073110;28;20067;-64
2022/04/01 03:06:56;;;;;;;26.93;16.50;;;6.10;99.90;;;;;;5055042;28;20051;-64
2022/04/01 03:09:22;;;;;;;29.33;17.73;;;6.10;99.90;;;;;;5072929;28;20055;-63
2022/04/01 03:11:48;;;;;;;26.60;16.23;;;6.20;99.90;;;;;;5073160;28;20451;-63
2022/04/01 03:14:13;;;;;;;27.85;16.70;;;6.20;99.90;;;;;;5073281;28;20270;-63
2022/04/01 03:16:39;;;;;;;29.93;17.23;;;6.20;99.90;;;;;;5073123;28;20033;-64
2022/04/01 03:19:09;;;;;;;27.90;16.17;;;6.10;99.90;;;;;;5073086;28;20490;-64
2022/04/01 03:21:39;;;;;;;25.08;15.50;;;6.10;99.90;;;;;;5072848;28;20036;-64
2022/04/01 03:24:06;;;;;;;25.90;16.65;;;6.10;99.90;;;;;;5072979;28;20024;-64
2022/04/01 03:26:32;;;;;;;26.35;15.98;;;6.10;99.90;;;;;;5072736;28;20151;-64
2022/04/01 03:29:01;;;;;;;27.90;16.27;;;6.10;99.90;;;;;;5073226;28;20103;-64
2022/04/01 03:31:26;;;;;;;25.95;16.73;;;6.10;99.90;;;;;;5072628;28;20090;-62
2022/04/01 03:33:52;;;;;;;29.20;17.30;;;6.10;99.90;;;;;;5072714;28;20072;-64
2022/04/01 03:36:18;;;;;;;26.23;16.27;;;6.00;99.90;;;;;;5072633;28;20379;-65
2022/04/01 03:38:44;;;;;;;24.27;15.52;;;6.10;99.90;;;;;;5072573;28;20019;-65
2022/04/01 03:41:10;;;;;;;25.13;15.95;;;6.20;99.90;;;;;;5072712;28;20056;-63
2022/04/01 03:43:36;;;;;;;26.65;16.35;;;6.10;99.90;;;;;;5072768;28;20025;-63
2022/04/01 03:46:11;;;;;;;27.65;17.05;;;6.10;99.90;;;;;;5054789;28;20429;-64
2022/04/01 03:48:48;;;;;;;29.27;18.70;;;6.00;99.90;;;;;;5072920;28;20375;-63
2022/04/01 03:51:19;;;;;;;29.08;17.95;;;6.00;99.90;;;;;;5054444;28;20063;-64
2022/04/01 03:54:04;;;;;;;26.23;17.35;;;6.00;99.90;;;;;;5054436;28;20020;-64
2022/04/01 03:56:37;;;;;;;25.60;16.77;;;6.00;99.90;;;;;;5072513;28;20019;-64
2022/04/01 03:59:07;;;;;;;26.60;17.10;;;6.00;99.90;;;;;;5072427;28;20031;-64
2022/04/01 04:01:35;;;;;;;27.42;17.67;;;6.00;99.90;;;;;;5072971;28;20028;-64
2022/04/01 04:04:01;;;;;;;30.50;17.92;;;6.00;99.90;;;;;;5076574;28;20503;-64
2022/04/01 04:06:27;;;;;;;33.03;19.15;;;6.00;99.90;;;;;;5076332;28;20475;-65
2022/04/01 04:08:57;;;;;;;28.63;17.35;;;6.00;99.90;;;;;;5058079;28;20082;-65
2022/04/01 04:11:31;;;;;;;30.10;17.48;;;6.00;99.90;;;;;;5076003;28;20054;-64
2022/04/01 04:13:58;;;;;;;29.85;17.75;;;5.90;99.90;;;;;;5076316;28;20043;-64
2022/04/01 04:16:27;;;;;;;27.63;17.70;;;5.80;99.90;;;;;;5075896;28;20467;-64
2022/04/01 04:19:07;;;;;;;29.48;18.13;;;5.80;99.90;;;;;;5075885;28;20059;-64
2022/04/01 04:21:52;;;;;;;29.10;17.67;;;5.80;99.90;;;;;;5075883;28;20033;-64
2022/04/01 04:24:20;;;;;;;26.50;17.10;;;5.90;99.90;;;;;;5075976;28;20016;-64
2022/04/01 04:26:50;;;;;;;27.13;17.33;;;5.90;99.90;;;;;;5075945;28;20074;-63
2022/04/01 04:29:17;;;;;;;26.92;17.55;;;5.80;99.90;;;;;;5076027;28;20142;-65
2022/04/01 04:31:59;;;;;;;26.13;17.63;;;5.80;99.90;;;;;;5075922;28;20025;-63
2022/04/01 04:34:30;;;;;;;24.45;16.23;;;5.80;99.90;;;;;;5076057;28;20056;-64
2022/04/01 04:36:57;;;;;;;23.67;16.38;;;5.90;99.90;;;;;;5075644;28;20467;-64
2022/04/01 04:39:32;;;;;;;26.02;17.42;;;5.90;99.90;;;;;;5057663;28;20024;-64
2022/04/01 04:41:58;;;;;;;26.73;17.10;;;5.90;99.90;;;;;;5075519;28;20423;-63
2022/04/01 04:44:28;;;;;;;28.83;17.50;;;5.80;99.90;;;;;;5075824;28;20039;-64
2022/04/01 04:46:55;;;;;;;25.45;16.67;;;5.80;99.90;;;;;;5075985;28;20167;-63
2022/04/01 04:49:21;;;;;;;;;;;5.80;99.90;;;;;;5076583;28;20070;-63
2022/04/01 04:51:50;;;;;;;24.17;15.90;;;5.80;99.90;;;;;;5057614;28;20000;-63
2022/04/01 04:54:18;;;;;;;28.08;17.33;;;5.70;99.90;;;;;;5075558;28;20423;-64
2022/04/01 04:56:44;;;;;;;23.20;16.33;;;5.80;99.90;;;;;;5075578;28;20024;-64
2022/04/01 04:59:10;;;;;;;25.83;17.27;;;5.70;99.90;;;;;;5075458;28;20025;-64
2022/04/01 05:01:56;;;;;;;28.13;18.13;;;5.70;99.90;;;;;;5075622;28;20427;-64
2022/04/01 05:04:30;;;;;;;25.55;16.73;;;5.70;99.90;;;;;;5076322;28;20485;-64
2022/04/01 05:07:20;;;;;;;22.98;15.90;;;5.60;99.90;;;;;;5075340;28;20033;-64
2022/04/01 05:09:57;;;;;;;25.77;17.17;;;5.60;99.90;;;;;;5056948;28;20096;-64
2022/04/01 05:12:42;;;;;;;23.10;16.10;;;5.60;99.90;;;;;;5075144;28;20021;-61
2022/04/01 05:15:10;;;;;;;25.55;17.13;;;5.60;99.90;;;;;;5057326;28;20032;-63
2022/04/01 05:17:46;;;;;;;23.50;16.48;;;5.60;99.90;;;;;;5075012;28;20020;-63
2022/04/01 05:20:18;;;;;;;24.70;16.65;;;5.50;99.90;;;;;;5074983;28;20027;-64
2022/04/01 05:22:56;;;;;;;24.20;17.23;;;5.50;99.90;;;;;;5074726;28;20043;-64
2022/04/01 05:25:24;;;;;;;24.80;16.85;;;5.50;99.90;;;;;;5056611;28;20030;-63
2022/04/01 05:27:53;;;;;;;23.60;16.48;;;5.50;99.90;;;;;;5074607;28;20016;-63
2022/04/01 05:30:24;;;;;;;25.15;16.08;;;5.50;99.90;;;;;;5074418;28;20021;-64
2022/04/01 05:33:02;;;;;;;25.33;17.27;;;5.50;99.90;;;;;;5074877;28;20021;-64
2022/04/01 05:35:35;;;;;;;23.85;17.05;;;5.60;99.90;;;;;;5075057;28;20067;-63
2022/04/01 05:38:01;;;;;;;22.50;16.92;;;5.60;99.90;;;;;;5074213;28;20097;-62
2022/04/01 05:40:28;;;;;;;24.38;15.90;;;5.60;99.90;;;;;;5074271;28;20472;-62
2022/04/01 05:42:55;;;;;;;24.20;16.00;;;5.60;99.90;;;;;;5056431;28;20064;-62
2022/04/01 05:45:23;;;;;;;20.88;15.05;;;5.60;99.90;;;;;;5056413;28;20029;-62
2022/04/01 05:47:49;;;;;;;22.33;15.48;;;5.50;99.90;;;;;;5074285;28;20494;-63
2022/04/01 05:50:20;;;;;;;23.45;16.27;;;5.50;99.90;;;;;;5074116;28;20063;-63
2022/04/01 05:52:50;;;;;;;25.88;15.90;;;5.50;99.90;;;;;;5074036;28;20025;-64
2022/04/01 05:55:19;;;;;;;23.30;15.52;;;5.50;99.90;;;;;;5074019;28;20016;-63
2022/04/01 05:57:45;;;;;;;23.80;15.07;;;5.50;99.90;;;;;;5074279;28;20157;-63
2022/04/01 06:00:14;;;;;;;23.07;16.33;;;5.50;99.90;;;;;;5073967;28;20070;-63
2022/04/01 06:02:48;;;;;;;21.17;15.63;;;5.50;99.90;;;;;;5073960;28;20089;-63
2022/04/01 06:05:56;;;;;;;20.23;14.57;;;5.40;99.90;;;;;;5055948;28;20028;-65
2022/04/01 06:08:27;;;;;;;21.60;14.77;;;5.40;99.90;;;;;;5074131;28;20020;-64
2022/04/01 06:11:04;;;;;;;21.23;15.55;;;5.40;99.90;;;;;;5073739;28;20025;-64
2022/04/01 06:13:44;;;;;;;;;;;5.40;99.90;;;;;;5074285;28;20024;-63
2022/04/01 06:16:33;;;;;;;24.05;15.70;;;5.60;99.90;;;;;;5053935;28;20003;-65
2022/04/01 06:19:32;;;;;;;23.25;15.55;;;5.60;99.90;;;;;;5053935;28;20051;-64
2022/04/01 06:22:16;;;;;;;20.88;14.70;;;5.70;99.90;;;;;;5053572;28;20052;-64
2022/04/01 06:24:46;;;;;;;22.48;15.68;;;5.60;99.90;;;;;;5053437;28;20060;-63
2022/04/01 06:27:14;;;;;;;19.77;14.73;;;5.70;99.90;;;;;;5053547;28;20110;-63
2022/04/01 06:29:42;;;;;;;23.50;15.27;;;5.60;99.90;;;;;;5053622;28;20029;-63
2022/04/01 06:32:27;;;;;;;23.42;15.02;;;5.60;99.90;;;;;;5053229;28;20021;-65
2022/04/01 06:35:18;;;;;;;24.08;15.48;;;5.60;99.90;;;;;;5053247;28;20029;-64
2022/04/01 06:37:52;;;;;;;21.23;15.23;;;5.50;99.90;;;;;;5053711;28;20159;-64
2022/04/01 06:40:22;;;;;;;20.15;13.95;;;5.60;99.90;;;;;;5053477;28;20040;-63
2022/04/01 06:42:51;;;;;;;19.77;14.10;;;5.60;99.90;;;;;;5035179;28;20376;-64
2022/04/01 06:45:17;;;;;;;22.98;15.50;;;5.50;99.90;;;;;;5053291;28;20021;-64
2022/04/01 06:47:45;;;;;;;20.92;14.57;;;5.50;99.90;;;;;;5053267;28;20071;-61
2022/04/01 06:50:12;;;;;;;22.25;14.20;;;5.40;99.90;;;;;;5054024;28;20040;-64
2022/04/01 06:52:39;;;;;;;20.40;14.43;;;5.50;99.90;;;;;;5054313;28;20017;-64
2022/04/01 06:55:08;;;;;;;21.60;14.77;;;5.50;99.90;;;;;;5053101;28;20112;-65
2022/04/01 06:57:34;;;;;;;23.83;13.90;;;5.50;99.90;;;;;;5053535;28;20482;-64
2022/04/01 07:00:00;;;;;;;22.63;14.65;;;5.50;99.90;;;;;;5053135;28;20029;-65
2022/04/01 07:02:25;;;;;;;21.23;13.07;;;5.50;99.90;;;;;;5053347;28;20447;-65
2022/04/01 07:04:51;;;;;;;20.67;14.10;;;5.60;99.90;;;;;;5053337;28;20025;-63
2022/04/01 07:07:17;;;;;;;20.98;12.90;;;5.60;99.90;;;;;;5052914;28;20051;-65
2022/04/01 07:09:43;;;;;;;22.43;14.53;;;5.70;99.90;;;;;;5052910;28;20069;-64
2022/04/01 07:12:08;;;;;;;22.37;13.30;;;5.70;99.90;;;;;;5053156;28;20036;-65
2022/04/01 07:14:35;;;;;;;20.47;13.53;;;5.70;99.90;;;;;;5035052;28;20606;-64
2022/04/01 07:17:01;;;;;;;21.85;13.98;;;5.60;99.90;;;;;;5053037;28;20033;-64
2022/04/01 07:19:27;;;;;;;22.55;12.98;;;5.60;99.90;;;;;;5053299;28;20118;-63
2022/04/01 07:21:53;;;;;;;;;;;5.60;99.90;;;;;;5035808;28;20098;-62
2022/04/01 07:24:19;;;;;;;18.83;12.65;;;5.60;99.90;;;;;;5053251;28;20370;-62
2022/04/01 07:26:45;;;;;;;18.45;11.38;;;5.70;99.90;;;;;;5052702;28;20047;-63
2022/04/01 07:29:12;;;;;;;20.00;12.40;;;5.70;99.90;;;;;;5052228;28;20029;-64
2022/04/01 07:34:35;;;;;;;19.40;12.82;;;5.70;99.90;;;;;;5052255;28;20368;-63
2022/04/01 07:37:02;;;;;;;20.15;13.05;;;5.70;99.90;;;;;;5053633;28;20017;-63
2022/04/01 07:39:27;;;;;;;20.33;13.77;;;5.60;99.90;;;;;;5056619;28;20158;-64
2022/04/01 07:41:53;;;;;;;19.83;13.88;;;5.60;99.90;;;;;;5056069;28;20037;-63
2022/04/01 07:44:19;;;;;;;20.55;13.73;;;5.60;99.90;;;;;;5056587;28;20467;-63
2022/04/01 07:46:45;;;;;;;20.65;14.23;;;5.60;99.90;;;;;;5056960;28;20104;-63
2022/04/01 07:49:11;;;;;;;20.15;13.48;;;5.70;99.90;;;;;;5056873;28;20033;-63
2022/04/01 07:51:37;;;;;;;19.30;13.37;;;5.80;99.90;;;;;;5056759;28;20017;-62
2022/04/01 07:54:03;;;;;;;18.93;13.07;;;5.80;99.90;;;;;;5056087;28;20056;-64
2022/04/01 07:56:31;;;;;;;20.83;13.02;;;5.80;99.90;;;;;;5055894;28;20738;-64
2022/04/01 07:59:00;;;;;;;18.48;12.88;;;5.80;99.90;;;;;;5055832;28;20446;-64
2022/04/01 08:01:26;;;;;;;19.77;13.00;;;5.70;99.90;;;;;;5055839;28;20033;-61
2022/04/01 08:03:52;;;;;;;19.38;12.77;;;5.70;99.90;;;;;;5055762;28;20047;-64
2022/04/01 08:06:17;;;;;;;16.10;11.68;;;5.70;99.90;;;;;;5055693;28;20029;-63
2022/04/01 08:08:43;;;;;;;17.63;11.50;;;5.70;99.90;;;;;;5055647;28;20107;-62
2022/04/01 08:11:09;;;;;;;17.90;12.27;;;5.70;99.90;;;;;;5055807;28;20025;-63
2022/04/01 08:13:34;;;;;;;19.33;12.07;;;5.70;99.90;;;;;;5055946;28;20027;-63
2022/04/01 08:16:01;;;;;;;19.87;11.93;;;5.70;99.90;;;;;;5055580;28;20029;-63
2022/04/01 08:18:27;;;;;;;;;;;5.80;99.90;;;;;;5056073;28;20044;-63
2022/04/01 08:20:53;;;;;;;18.20;12.48;;;5.90;99.90;;;;;;5037715;28;19905;-62
2022/04/01 08:23:19;;;;;;;17.70;10.87;;;6.00;99.90;;;;;;5055251;28;20036;-63
2022/04/01 08:25:48;;;;;;;19.83;11.82;;;5.90;99.90;;;;;;5037299;28;20029;-63
2022/04/01 08:28:14;;;;;;;17.90;11.80;;;5.90;99.90;;;;;;5055326;28;20025;-63
2022/04/01 08:30:40;;;;;;;18.27;12.17;;;5.90;99.90;;;;;;5037481;28;20025;-62
2022/04/01 08:33:07;;;;;;;16.70;11.60;;;5.90;99.90;;;;;;5055550;28;20013;-63
2022/04/01 08:35:33;;;;;;;16.45;11.70;;;6.00;99.90;;;;;;5055269;28;20055;-63
2022/04/01 08:38:00;;;;;;;16.55;11.70;;;6.00;99.90;;;;;;5055290;28;20051;-63
2022/04/01 08:40:26;;;;;;;;;;;6.00;99.90;;;;;;5055621;28;20025;-64
2022/04/01 08:42:52;;;;;;;17.75;10.77;;;6.00;99.90;;;;;;5036919;28;19905;-63
2022/04/01 08:45:18;;;;;;;16.53;9.63;;;6.10;99.90;;;;;;5055233;28;20025;-65
2022/04/01 08:47:44;;;;;;;14.52;10.48;;;6.10;99.90;;;;;;5054717;28;20032;-63
2022/04/01 08:50:10;;;;;;;15.50;10.20;;;6.10;99.90;;;;;;5037115;28;20056;-64
2022/04/01 08:52:37;;;;;;;14.38;10.15;;;6.00;99.90;;;;;;5054742;28;20025;-63
2022/04/01 08:55:08;;;;;;;15.93;10.18;;;6.00;99.90;;;;;;5054712;28;20100;-64
2022/04/01 08:57:38;;;;;;;16.02;11.52;;;6.00;99.90;;;;;;5036601;28;20097;-63
2022/04/01 09:00:24;;;;;;;16.48;11.25;;;6.10;99.90;;;;;;5054550;28;20376;-63
2022/04/01 09:03:05;;;;;;;15.10;10.85;;;6.00;99.90;;;;;;5037178;28;20033;-64
2022/04/01 09:05:30;;;;;;;15.00;11.05;;;6.10;99.90;;;;;;5055634;28;20029;-64
2022/04/01 09:08:01;;;;;;;13.90;9.77;;;6.10;99.90;;;;;;5054886;28;20032;-64
2022/04/01 09:10:26;;;;;;;15.32;10.48;;;6.10;99.90;;;;;;5054782;28;20104;-63
2022/04/01 09:12:52;;;;;;;15.53;11.23;;;6.10;99.90;;;;;;5054710;28;20051;-64
2022/04/01 09:15:21;;;;;;;14.50;10.40;;;6.00;99.90;;;;;;5054647;28;20428;-64
2022/04/01 09:17:48;;;;;;;15.70;10.15;;;5.90;99.90;;;;;;5054859;28;20025;-64
2022/04/01 09:20:15;;;;;;;15.10;10.65;;;5.90;99.90;;;;;;5054486;28;20025;-63
2022/04/01 09:22:42;;;;;;;14.45;10.85;;;5.90;99.90;;;;;;5054462;28;20036;-63
2022/04/01 09:25:13;;;;;;;15.65;10.55;;;5.80;99.90;;;;;;5054623;28;20033;-62
2022/04/01 09:30:09;;;;;;;15.60;10.10;;;5.80;99.90;;;;;;5076001;23;20057;-65
2022/04/01 09:32:44;;;;;;;15.02;10.15;;;5.90;99.90;;;;;;5055359;28;20025;-65
2022/04/01 09:35:11;;;;;;;13.82;8.90;;;5.90;99.90;;;;;;5037851;28;20021;-66
2022/04/01 09:37:47;;;;;;;13.75;9.35;;;5.90;99.90;;;;;;5055412;28;20029;-64
2022/04/01 09:40:20;;;;;;;12.18;9.02;;;5.90;99.90;;;;;;5035539;28;20029;-65
2022/04/01 09:42:51;;;;;;;13.80;10.00;;;5.90;99.90;;;;;;5035645;28;20032;-66
2022/04/01 09:45:35;;;;;;;15.65;9.95;;;5.90;99.90;;;;;;5017448;28;20391;-65
2022/04/01 09:48:09;;;;;;;13.20;9.40;;;6.00;99.90;;;;;;5035451;28;20029;-66
2022/04/01 09:50:44;;;;;;;14.45;9.23;;;6.00;99.90;;;;;;5035170;28;20107;-65
2022/04/01 09:53:10;;;;;;;13.18;9.13;;;5.90;99.90;;;;;;5017380;28;20079;-65
2022/04/01 09:55:37;;;;;;;;;;;5.90;99.90;;;;;;5035370;28;20034;-65
2022/04/01 09:58:04;;;;;;;14.05;9.23;;;5.90;99.90;;;;;;5035462;28;19909;-66
2022/04/01 10:00:30;;;;;;;13.23;8.45;;;5.80;99.90;;;;;;5033662;28;20039;-65
2022/04/01 10:02:55;;;;;;;12.50;8.73;;;5.80;99.90;;;;;;5034413;28;20025;-64
2022/04/01 10:05:21;;;;;;;11.90;8.33;;;5.80;99.90;;;;;;5034672;28;20044;-65
2022/04/01 10:07:47;;;;;;;10.50;7.97;;;6.00;99.90;;;;;;5034679;28;20040;-66
2022/04/01 10:10:13;;;;;;;11.70;8.07;;;5.90;99.90;;;;;;5035875;28;20025;-67
2022/04/01 10:12:45;;;;;;;15.20;8.23;;;5.90;99.90;;;;;;5017967;28;20034;-65
2022/04/01 10:15:12;;;;;;;12.50;7.95;;;5.90;99.90;;;;;;5017078;28;20017;-67
2022/04/01 10:17:39;;;;;;;10.32;7.57;;;5.80;99.90;;;;;;5034255;28;20088;-65
2022/04/01 10:20:06;;;;;;;15.23;8.40;;;5.90;99.90;;;;;;5016519;28;20040;-65
2022/04/01 10:22:32;;;;;;;13.30;8.23;;;5.90;99.90;;;;;;5034123;28;20492;-66
2022/04/01 10:25:19;;;;;;;12.40;8.20;;;5.90;99.90;;;;;;5034487;28;20041;-65
2022/04/01 10:27:48;;;;;;;;;;;5.90;99.90;;;;;;5016759;28;20081;-64
2022/04/01 10:30:16;;;;;;;13.70;9.13;;;5.80;99.90;;;;;;5016314;28;19915;-66
2022/04/01 10:32:46;;;;;;;13.18;9.02;;;5.60;99.90;;;;;;5033941;28;20017;-66
2022/04/01 10:35:33;;;;;;;15.88;11.07;;;5.60;99.90;;;;;;5016238;28;20029;-65
2022/04/01 10:38:05;;;;;;;15.05;9.63;;;5.60;99.90;;;;;;5034185;28;20026;-65
2022/04/01 10:40:32;;;;;;;19.65;10.02;;;5.60;99.90;;;;;;5015998;28;20064;-65
2022/04/01 10:43:13;;;;;;;13.55;9.55;;;5.70;99.90;;;;;;5033879;28;20029;-66
2022/04/01 10:45:40;;;;;;;14.80;9.90;;;5.70;99.90;;;;;;5015885;28;20102;-65
2022/04/01 10:53:54;;;;;;;15.02;10.40;;;5.60;99.90;;;;;;5033869;28;20423;-65
2022/04/01 10:56:23;;;;;;;13.50;9.67;;;5.70;99.90;;;;;;5033725;28;20021;-66
2022/04/01 10:59:13;;;;;;;17.77;10.48;;;5.80;99.90;;;;;;5034086;28;20022;-66
2022/04/01 11:01:52;;;;;;;14.95;10.35;;;6.00;99.90;;;;;;5015941;28;20119;-65
2022/04/01 11:04:18;;;;;;;17.35;11.82;;;6.00;99.90;;;;;;5015689;28;20356;-65
2022/04/01 11:06:53;;;;;;;13.93;10.93;;;5.90;99.90;;;;;;5033621;28;20021;-65
2022/04/01 11:09:42;;;;;;;13.80;10.85;;;5.90;99.90;;;;;;5033205;28;20058;-66
2022/04/01 11:12:17;;;;;;;14.30;9.68;;;5.90;99.90;;;;;;5033334;28;20138;-65
2022/04/01 11:15:08;;;;;;;14.43;10.55;;;5.80;99.90;;;;;;5015507;28;20021;-65
2022/04/01 11:17:34;;;;;;;15.18;10.05;;;5.90;99.90;;;;;;5015528;28;20075;-65
2022/04/01 11:20:10;;;;;;;13.77;9.80;;;5.90;99.90;;;;;;5033442;28;20026;-64
2022/04/01 11:22:37;;;;;;;16.02;11.02;;;6.00;99.90;;;;;;5033142;28;20112;-63
2022/04/01 11:25:07;;;;;;;16.52;10.10;;;5.90;99.90;;;;;;5033578;28;20029;-62
2022/04/01 11:27:36;;;;;;;12.93;9.57;;;5.90;99.90;;;;;;5033679;28;20467;-63
2022/04/01 11:30:06;;;;;;;15.57;9.77;;;5.90;99.90;;;;;;5033312;28;20514;-64
2022/04/01 11:32:37;;;;;;;12.27;9.20;;;5.90;99.90;;;;;;5033674;28;20482;-63
2022/04/01 11:35:08;;;;;;;12.00;9.43;;;5.90;99.90;;;;;;5033608;28;20590;-63
2022/04/01 11:37:39;;;;;;;14.38;9.48;;;5.80;99.90;;;;;;5033845;28;20037;-62
2022/04/01 11:40:10;;;;;;;11.95;8.80;;;5.80;99.90;;;;;;5015732;28;20036;-61
2022/04/01 11:42:58;;;;;;;16.10;9.82;;;5.80;99.90;;;;;;5033626;28;20391;-63
2022/04/01 11:45:26;;;;;;;12.95;9.85;;;5.90;99.90;;;;;;5015429;28;20036;-57
2022/04/01 11:47:53;;;;;;;13.20;9.82;;;5.90;99.90;;;;;;5032825;28;20329;-56
2022/04/01 11:50:21;;;;;;;13.18;9.00;;;5.90;99.90;;;;;;5015592;28;20025;-58
2022/04/01 11:52:49;;;;;;;14.27;10.27;;;5.90;99.90;;;;;;5015615;28;20037;-56
2022/04/01 11:55:21;;;;;;;16.30;10.48;;;5.80;99.90;;;;;;5033644;28;20087;-58
2022/04/01 11:57:47;;;;;;;16.70;9.88;;;5.70;99.90;;;;;;5033739;28;20030;-55
2022/04/01 12:00:16;;;;;;;16.33;10.15;;;5.60;99.90;;;;;;5015805;28;20052;-58
2022/04/01 12:02:44;;;;;;;15.07;9.15;;;5.60;99.90;;;;;;5034077;28;20123;-63
2022/04/01 12:05:10;;;;;;;13.73;9.30;;;5.50;99.90;;;;;;5034078;28;20048;-63
2022/04/01 12:10:27;;;;;;;17.05;9.95;;;5.30;99.90;;;;;;5033195;28;19967;-62
2022/04/01 12:12:58;;;;;;;15.52;9.93;;;5.10;99.90;;;;;;5032936;28;20464;-62
2022/04/01 12:15:40;;;;;;;16.45;10.20;;;5.20;99.90;;;;;;5032856;28;20018;-61
2022/04/01 12:18:08;;;;;;;15.73;9.85;;;5.20;99.90;;;;;;5014857;28;20037;-63
2022/04/01 12:20:44;;;;;;;14.55;10.43;;;5.20;99.90;;;;;;5032354;28;20114;-62
2022/04/01 12:23:11;;;;;;;15.07;10.68;;;5.20;99.90;;;;;;5033909;28;20053;-61
2022/04/01 12:25:38;;;;;;;14.02;9.90;;;5.20;99.90;;;;;;5036954;28;20039;-63
2022/04/01 12:28:08;;;;;;;14.07;9.70;;;5.10;99.90;;;;;;5036154;28;20072;-65
2022/04/01 12:30:44;;;;;;;16.13;10.43;;;5.10;99.90;;;;;;5018417;28;20036;-62
2022/04/01 12:33:15;;;;;;;15.18;10.48;;;5.10;99.90;;;;;;5036158;28;20025;-62
2022/04/01 12:35:52;;;;;;;14.77;10.00;;;5.10;99.90;;;;;;5036568;28;20022;-62
2022/04/01 12:38:18;;;;;;;16.25;10.27;;;5.10;99.90;;;;;;5036549;28;20493;-63
2022/04/01 12:40:43;;;;;;;15.43;10.15;;;5.00;99.90;;;;;;5036283;28;20377;-63
2022/04/01 12:43:35;;;;;;;14.73;10.83;;;5.10;99.90;;;;;;5035927;28;20079;-63
2022/04/01 12:46:05;;;;;;;15.35;11.45;;;5.20;99.90;;;;;;5035975;28;20021;-64
2022/04/01 12:48:49;;;;;;;15.82;10.95;;;5.20;99.90;;;;;;5035939;28;20384;-63
2022/04/01 12:51:29;;;;;;;16.15;11.10;;;5.30;99.90;;;;;;5035475;28;20117;-63
2022/04/01 12:54:02;;;;;;;13.00;9.32;;;5.40;99.90;;;;;;5035631;28;20087;-63
2022/04/01 12:56:33;;;;;;;14.15;9.60;;;5.30;99.90;;;;;;5035900;28;20041;-64
2022/04/01 12:59:10;;;;;;;13.30;9.10;;;5.20;99.90;;;;;;5036147;28;20439;-65
2022/04/01 13:01:38;;;;;;;15.23;9.77;;;5.10;99.90;;;;;;5017737;28;20025;-62
2022/04/01 13:04:07;;;;;;;14.30;9.98;;;5.00;99.90;;;;;;5035659;28;20040;-62
2022/04/01 13:06:33;;;;;;;14.90;10.68;;;5.00;99.90;;;;;;5035654;28;20026;-62
2022/04/01 13:09:08;;;;;;;18.03;10.20;;;5.00;99.90;;;;;;5035408;28;20052;-62
2022/04/01 13:11:38;;;;;;;15.50;10.88;;;5.00;99.90;;;;;;5036406;28;20071;-64
2022/04/01 13:14:05;;;;;;;12.95;9.35;;;4.90;99.90;;;;;;5035996;28;20052;-63